This is the latest recevied weather packets stored in our database for station/object IU3NMQ-10. If no packets are shown the sender has not sent any weather packets the latest 10 day(s).
| Time | Temp. | Humidity | Pressure | Rain* | Wind** | Luminosity | Snow |
|---|---|---|---|---|---|---|---|
| 1787667306 | 29.44° C | 61% | 1007.4 hPa | - | - | - | - |
| 1787666406 | 28.89° C | 61% | 1007.5 hPa | - | - | - | - |
| 1787665506 | 30° C | 59% | 1007.5 hPa | - | - | - | - |
| 1787664605 | 29.44° C | 59% | 1007.4 hPa | - | - | - | - |
| 1787663705 | 30° C | 59% | 1007.4 hPa | - | - | - | - |
| 1787662805 | 29.44° C | 59% | 1007.4 hPa | - | - | - | - |
| 1787661905 | 29.44° C | 59% | 1007.5 hPa | - | - | - | - |
| 1787661005 | 30° C | 60% | 1007.5 hPa | - | - | - | - |
| 1787660105 | 29.44° C | 61% | 1007.5 hPa | - | - | - | - |
| 1787659205 | 28.89° C | 65% | 1007.6 hPa | - | - | - | - |
| 1787658304 | 27.78° C | 68% | 1007.7 hPa | - | - | - | - |
| 1787657403 | 27.78° C | 69% | 1007.8 hPa | - | - | - | - |
| 1787656503 | 26.67° C | 71% | 1007.9 hPa | - | - | - | - |
| 1787655602 | 26.11° C | 72% | 1008 hPa | - | - | - | - |
| 1787654702 | 25.56° C | 75% | 1008.2 hPa | - | - | - | - |
| 1787653853 | 25.56° C | 75% | 1008 hPa | - | - | - | - |
| 1787653802 | 25.56° C | 75% | 1008 hPa | - | - | - | - |
| 1787653601 | 25° C | 76% | 1007.9 hPa | - | - | - | - |
| 1787652902 | 25° C | 76% | 1007.9 hPa | - | - | - | - |
| 1787652002 | 25.56° C | 76% | 1007.8 hPa | - | - | - | - |
| 1787651105 | 23.89° C | 81% | 1007.9 hPa | - | - | - | - |
| 1787650886 | 23.89° C | 80% | 1007.9 hPa | - | - | - | - |
| 1787649986 | 23.33° C | 81% | 1008 hPa | - | - | - | - |
| 1787649086 | 23.89° C | 79% | 1008.1 hPa | - | - | - | - |
| 1787648186 | 23.89° C | 76% | 1008.3 hPa | - | - | - | - |
* Rain since midnight (hover to see other rain measurements)
** Current wind speed in m/s (hover to see current wind gust speed)